sensor_id;sensor_type;location;lat;lon;timestamp;temperature;humidity
23411;DHT22;11878;51.774;7.220;2023-02-28T00:02:19;0.00;99.90
23411;DHT22;11878;51.774;7.220;2023-02-28T00:05:23;0.00;99.90
23411;DHT22;11878;51.774;7.220;2023-02-28T00:08:25;-0.10;99.90
23411;DHT22;11878;51.774;7.220;2023-02-28T00:11:28;0.00;99.90
23411;DHT22;11878;51.774;7.220;2023-02-28T00:14:30;-0.10;99.90
23411;DHT22;11878;51.774;7.220;2023-02-28T00:17:32;0.00;99.90
23411;DHT22;11878;51.774;7.220;2023-02-28T00:20:33;-0.10;99.90
23411;DHT22;11878;51.774;7.220;2023-02-28T00:23:35;-0.10;99.90
23411;DHT22;11878;51.774;7.220;2023-02-28T00:26:37;-0.10;99.90
23411;DHT22;11878;51.774;7.220;2023-02-28T00:29:39;-0.10;99.90
23411;DHT22;11878;51.774;7.220;2023-02-28T00:32:41;0.00;99.90
23411;DHT22;11878;51.774;7.220;2023-02-28T00:35:43;-0.10;99.90
23411;DHT22;11878;51.774;7.220;2023-02-28T00:38:47;0.10;99.90
23411;DHT22;11878;51.774;7.220;2023-02-28T00:41:49;0.10;99.90
23411;DHT22;11878;51.774;7.220;2023-02-28T00:44:51;0.10;99.90
23411;DHT22;11878;51.774;7.220;2023-02-28T00:47:52;0.00;99.90
23411;DHT22;11878;51.774;7.220;2023-02-28T00:50:54;0.10;99.90
23411;DHT22;11878;51.774;7.220;2023-02-28T00:53:56;0.00;99.90
23411;DHT22;11878;51.774;7.220;2023-02-28T00:56:58;0.00;99.90
23411;DHT22;11878;51.774;7.220;2023-02-28T01:00:00;-0.10;99.90
23411;DHT22;11878;51.774;7.220;2023-02-28T01:03:02;-0.10;99.90
23411;DHT22;11878;51.774;7.220;2023-02-28T01:06:04;-0.10;99.90
23411;DHT22;11878;51.774;7.220;2023-02-28T01:09:06;-0.30;99.90
23411;DHT22;11878;51.774;7.220;2023-02-28T01:12:09;-0.20;99.90
23411;DHT22;11878;51.774;7.220;2023-02-28T01:15:11;-0.30;99.90
23411;DHT22;11878;51.774;7.220;2023-02-28T01:18:12;-0.40;99.90
23411;DHT22;11878;51.774;7.220;2023-02-28T01:21:16;-0.30;99.90
23411;DHT22;11878;51.774;7.220;2023-02-28T01:24:19;-0.40;99.90
23411;DHT22;11878;51.774;7.220;2023-02-28T01:27:20;-0.50;99.90
23411;DHT22;11878;51.774;7.220;2023-02-28T01:30:22;-0.50;99.90
23411;DHT22;11878;51.774;7.220;2023-02-28T01:33:24;-0.50;99.90
23411;DHT22;11878;51.774;7.220;2023-02-28T01:36:27;-0.50;99.90
23411;DHT22;11878;51.774;7.220;2023-02-28T01:39:29;-0.60;99.90
23411;DHT22;11878;51.774;7.220;2023-02-28T01:42:31;-0.50;99.90
23411;DHT22;11878;51.774;7.220;2023-02-28T01:45:34;-0.40;99.90
23411;DHT22;11878;51.774;7.220;2023-02-28T01:48:51;-0.50;99.90
23411;DHT22;11878;51.774;7.220;2023-02-28T01:51:56;-0.60;99.90
23411;DHT22;11878;51.774;7.220;2023-02-28T01:55:00;-0.30;99.90
23411;DHT22;11878;51.774;7.220;2023-02-28T01:58:05;-0.40;99.90
23411;DHT22;11878;51.774;7.220;2023-02-28T02:01:07;-0.40;99.90
23411;DHT22;11878;51.774;7.220;2023-02-28T02:04:09;-0.70;99.90
23411;DHT22;11878;51.774;7.220;2023-02-28T02:07:12;-0.70;99.90
23411;DHT22;11878;51.774;7.220;2023-02-28T02:10:44;-0.70;99.90
23411;DHT22;11878;51.774;7.220;2023-02-28T02:17:31;-0.80;99.90
23411;DHT22;11878;51.774;7.220;2023-02-28T02:20:51;0.70;99.90
23411;DHT22;11878;51.774;7.220;2023-02-28T02:35:00;-1.10;99.90
23411;DHT22;11878;51.774;7.220;2023-02-28T02:38:24;-1.30;99.90
23411;DHT22;11878;51.774;7.220;2023-02-28T02:41:39;-1.20;99.90
23411;DHT22;11878;51.774;7.220;2023-02-28T02:44:52;-1.10;99.90
23411;DHT22;11878;51.774;7.220;2023-02-28T02:47:59;-1.30;99.90
23411;DHT22;11878;51.774;7.220;2023-02-28T02:51:07;-1.30;99.90
23411;DHT22;11878;51.774;7.220;2023-02-28T02:54:22;-1.30;99.90
23411;DHT22;11878;51.774;7.220;2023-02-28T02:57:30;-1.50;99.90
23411;DHT22;11878;51.774;7.220;2023-02-28T03:00:46;-1.30;99.90
23411;DHT22;11878;51.774;7.220;2023-02-28T03:03:49;-1.30;99.90
23411;DHT22;11878;51.774;7.220;2023-02-28T03:06:51;-1.30;99.90
23411;DHT22;11878;51.774;7.220;2023-02-28T03:09:57;-1.30;99.90
23411;DHT22;11878;51.774;7.220;2023-02-28T03:13:11;-1.30;99.90
23411;DHT22;11878;51.774;7.220;2023-02-28T03:20:07;-1.60;99.90
23411;DHT22;11878;51.774;7.220;2023-02-28T03:23:18;-1.70;99.90
23411;DHT22;11878;51.774;7.220;2023-02-28T03:26:26;-1.70;99.90
23411;DHT22;11878;51.774;7.220;2023-02-28T03:29:35;-1.70;99.90
23411;DHT22;11878;51.774;7.220;2023-02-28T03:40:10;-1.70;99.90
23411;DHT22;11878;51.774;7.220;2023-02-28T03:43:19;-1.80;99.90
23411;DHT22;11878;51.774;7.220;2023-02-28T03:46:30;-1.80;99.90
23411;DHT22;11878;51.774;7.220;2023-02-28T03:49:49;-1.80;99.90
23411;DHT22;11878;51.774;7.220;2023-02-28T03:59:32;-1.90;99.90
23411;DHT22;11878;51.774;7.220;2023-02-28T04:02:35;-1.90;99.90
23411;DHT22;11878;51.774;7.220;2023-02-28T04:06:08;-1.80;99.90
23411;DHT22;11878;51.774;7.220;2023-02-28T04:09:14;-1.70;99.90
23411;DHT22;11878;51.774;7.220;2023-02-28T04:12:16;-1.90;99.90
23411;DHT22;11878;51.774;7.220;2023-02-28T04:15:18;-1.80;99.90
23411;DHT22;11878;51.774;7.220;2023-02-28T04:18:24;-1.90;99.90
23411;DHT22;11878;51.774;7.220;2023-02-28T04:21:25;-1.80;99.90
23411;DHT22;11878;51.774;7.220;2023-02-28T04:24:28;-1.80;99.90
23411;DHT22;11878;51.774;7.220;2023-02-28T04:27:30;-1.90;99.90
23411;DHT22;11878;51.774;7.220;2023-02-28T04:30:33;-2.00;99.90
23411;DHT22;11878;51.774;7.220;2023-02-28T04:33:35;-2.00;99.90
23411;DHT22;11878;51.774;7.220;2023-02-28T04:36:37;-2.10;99.90
23411;DHT22;11878;51.774;7.220;2023-02-28T04:39:38;-2.00;99.90
23411;DHT22;11878;51.774;7.220;2023-02-28T04:42:40;-2.00;99.90
23411;DHT22;11878;51.774;7.220;2023-02-28T04:45:42;-2.00;99.90
23411;DHT22;11878;51.774;7.220;2023-02-28T04:48:44;-2.00;99.90
23411;DHT22;11878;51.774;7.220;2023-02-28T04:51:46;-2.00;99.90
23411;DHT22;11878;51.774;7.220;2023-02-28T04:54:47;-1.90;99.90
23411;DHT22;11878;51.774;7.220;2023-02-28T04:57:49;-2.00;99.90
23411;DHT22;11878;51.774;7.220;2023-02-28T05:00:52;-2.10;99.90
23411;DHT22;11878;51.774;7.220;2023-02-28T05:03:55;-2.40;99.90
23411;DHT22;11878;51.774;7.220;2023-02-28T05:06:57;-2.10;99.90
23411;DHT22;11878;51.774;7.220;2023-02-28T05:09:59;-2.10;99.90
23411;DHT22;11878;51.774;7.220;2023-02-28T05:13:01;-2.10;99.90
23411;DHT22;11878;51.774;7.220;2023-02-28T05:16:03;-2.20;99.90
23411;DHT22;11878;51.774;7.220;2023-02-28T05:19:05;-2.20;99.90
23411;DHT22;11878;51.774;7.220;2023-02-28T05:22:13;-2.10;99.90
23411;DHT22;11878;51.774;7.220;2023-02-28T05:25:17;-2.10;99.90
23411;DHT22;11878;51.774;7.220;2023-02-28T05:28:20;-2.20;99.90
23411;DHT22;11878;51.774;7.220;2023-02-28T05:31:22;-2.00;99.90
23411;DHT22;11878;51.774;7.220;2023-02-28T05:34:24;-2.00;99.90
23411;DHT22;11878;51.774;7.220;2023-02-28T05:37:26;-2.10;99.90
23411;DHT22;11878;51.774;7.220;2023-02-28T05:40:27;-2.20;99.90
23411;DHT22;11878;51.774;7.220;2023-02-28T05:43:29;-2.20;99.90
23411;DHT22;11878;51.774;7.220;2023-02-28T05:46:31;-2.30;99.90
23411;DHT22;11878;51.774;7.220;2023-02-28T05:49:32;-2.30;99.90
23411;DHT22;11878;51.774;7.220;2023-02-28T05:52:34;-2.30;99.90
23411;DHT22;11878;51.774;7.220;2023-02-28T05:55:36;-2.30;99.90
23411;DHT22;11878;51.774;7.220;2023-02-28T05:58:39;-2.30;99.90
23411;DHT22;11878;51.774;7.220;2023-02-28T06:01:42;-2.30;99.90
23411;DHT22;11878;51.774;7.220;2023-02-28T06:04:49;-2.30;99.90
23411;DHT22;11878;51.774;7.220;2023-02-28T06:07:51;-2.30;99.90
23411;DHT22;11878;51.774;7.220;2023-02-28T06:10:52;-2.40;99.90
23411;DHT22;11878;51.774;7.220;2023-02-28T06:13:58;-2.50;99.90
23411;DHT22;11878;51.774;7.220;2023-02-28T06:17:01;-2.60;99.90
23411;DHT22;11878;51.774;7.220;2023-02-28T06:20:05;-2.50;99.90
23411;DHT22;11878;51.774;7.220;2023-02-28T06:23:07;-2.60;99.90
23411;DHT22;11878;51.774;7.220;2023-02-28T06:26:09;-2.50;99.90
23411;DHT22;11878;51.774;7.220;2023-02-28T06:29:10;-2.60;99.90
23411;DHT22;11878;51.774;7.220;2023-02-28T06:32:12;-2.60;99.90
23411;DHT22;11878;51.774;7.220;2023-02-28T06:35:14;-2.70;99.90
23411;DHT22;11878;51.774;7.220;2023-02-28T06:38:16;-2.60;99.90
23411;DHT22;11878;51.774;7.220;2023-02-28T06:41:20;-2.60;99.90
23411;DHT22;11878;51.774;7.220;2023-02-28T06:44:23;-2.60;99.90
23411;DHT22;11878;51.774;7.220;2023-02-28T06:47:25;-2.50;99.90
23411;DHT22;11878;51.774;7.220;2023-02-28T06:50:27;-2.40;99.90
23411;DHT22;11878;51.774;7.220;2023-02-28T06:53:31;-2.40;99.90
23411;DHT22;11878;51.774;7.220;2023-02-28T06:56:32;-2.30;99.90
23411;DHT22;11878;51.774;7.220;2023-02-28T06:59:34;-2.20;99.90
23411;DHT22;11878;51.774;7.220;2023-02-28T07:02:36;-2.10;99.90
23411;DHT22;11878;51.774;7.220;2023-02-28T07:05:39;-2.00;99.90
23411;DHT22;11878;51.774;7.220;2023-02-28T07:08:41;-1.70;99.90
23411;DHT22;11878;51.774;7.220;2023-02-28T07:11:43;-1.80;99.90
23411;DHT22;11878;51.774;7.220;2023-02-28T07:14:45;-1.80;99.90
23411;DHT22;11878;51.774;7.220;2023-02-28T07:17:46;-1.60;99.90
23411;DHT22;11878;51.774;7.220;2023-02-28T07:20:48;-1.60;99.90
23411;DHT22;11878;51.774;7.220;2023-02-28T07:23:50;-1.50;99.90
23411;DHT22;11878;51.774;7.220;2023-02-28T07:26:53;-1.30;99.90
23411;DHT22;11878;51.774;7.220;2023-02-28T07:29:54;-1.40;99.90
23411;DHT22;11878;51.774;7.220;2023-02-28T07:32:56;-1.30;99.90
23411;DHT22;11878;51.774;7.220;2023-02-28T07:36:10;-1.30;99.90
23411;DHT22;11878;51.774;7.220;2023-02-28T07:39:16;-1.20;99.90
23411;DHT22;11878;51.774;7.220;2023-02-28T07:42:18;-1.10;99.90
23411;DHT22;11878;51.774;7.220;2023-02-28T07:45:20;-1.00;99.90
23411;DHT22;11878;51.774;7.220;2023-02-28T07:48:21;-0.80;99.90
23411;DHT22;11878;51.774;7.220;2023-02-28T07:51:23;-0.70;99.90
23411;DHT22;11878;51.774;7.220;2023-02-28T07:54:25;-0.70;99.90
23411;DHT22;11878;51.774;7.220;2023-02-28T07:57:26;-0.60;99.90
23411;DHT22;11878;51.774;7.220;2023-02-28T08:00:28;-0.50;99.90
23411;DHT22;11878;51.774;7.220;2023-02-28T08:03:30;-0.30;99.90
23411;DHT22;11878;51.774;7.220;2023-02-28T08:06:32;-0.20;99.90
23411;DHT22;11878;51.774;7.220;2023-02-28T08:09:34;-0.10;99.90
23411;DHT22;11878;51.774;7.220;2023-02-28T08:12:36;-0.10;99.90
23411;DHT22;11878;51.774;7.220;2023-02-28T08:15:38;0.00;99.90
23411;DHT22;11878;51.774;7.220;2023-02-28T08:18:39;0.10;99.90
23411;DHT22;11878;51.774;7.220;2023-02-28T08:21:41;0.20;99.90
23411;DHT22;11878;51.774;7.220;2023-02-28T08:24:43;0.20;99.90
23411;DHT22;11878;51.774;7.220;2023-02-28T08:27:45;0.40;99.90
23411;DHT22;11878;51.774;7.220;2023-02-28T08:30:46;0.60;99.90
23411;DHT22;11878;51.774;7.220;2023-02-28T08:33:48;0.60;99.90
23411;DHT22;11878;51.774;7.220;2023-02-28T08:36:52;0.80;99.90
23411;DHT22;11878;51.774;7.220;2023-02-28T08:39:54;0.90;99.90
23411;DHT22;11878;51.774;7.220;2023-02-28T08:42:57;1.20;99.90
23411;DHT22;11878;51.774;7.220;2023-02-28T08:45:59;1.30;99.90
23411;DHT22;11878;51.774;7.220;2023-02-28T08:49:01;1.40;99.90
23411;DHT22;11878;51.774;7.220;2023-02-28T08:52:03;1.60;99.90
23411;DHT22;11878;51.774;7.220;2023-02-28T08:55:05;1.80;99.90
23411;DHT22;11878;51.774;7.220;2023-02-28T08:58:07;1.90;99.90
23411;DHT22;11878;51.774;7.220;2023-02-28T09:01:11;2.10;99.90
23411;DHT22;11878;51.774;7.220;2023-02-28T09:04:14;2.30;99.90
23411;DHT22;11878;51.774;7.220;2023-02-28T09:07:20;2.50;99.90
23411;DHT22;11878;51.774;7.220;2023-02-28T09:10:22;2.70;99.90
23411;DHT22;11878;51.774;7.220;2023-02-28T09:13:25;2.90;99.90
23411;DHT22;11878;51.774;7.220;2023-02-28T09:16:28;3.10;99.90
23411;DHT22;11878;51.774;7.220;2023-02-28T09:19:29;3.20;99.90
23411;DHT22;11878;51.774;7.220;2023-02-28T09:22:31;3.50;99.90
23411;DHT22;11878;51.774;7.220;2023-02-28T09:25:34;3.70;99.90
23411;DHT22;11878;51.774;7.220;2023-02-28T09:28:36;3.90;99.90
23411;DHT22;11878;51.774;7.220;2023-02-28T09:31:38;4.10;99.90
23411;DHT22;11878;51.774;7.220;2023-02-28T09:34:39;4.20;99.90
23411;DHT22;11878;51.774;7.220;2023-02-28T09:37:41;4.40;99.90
23411;DHT22;11878;51.774;7.220;2023-02-28T09:40:51;4.70;97.80
23411;DHT22;11878;51.774;7.220;2023-02-28T09:43:59;4.80;94.80
23411;DHT22;11878;51.774;7.220;2023-02-28T09:47:11;5.00;93.80
23411;DHT22;11878;51.774;7.220;2023-02-28T09:50:30;5.30;93.00
23411;DHT22;11878;51.774;7.220;2023-02-28T09:53:36;5.40;91.80
23411;DHT22;11878;51.774;7.220;2023-02-28T09:56:42;5.50;89.90
23411;DHT22;11878;51.774;7.220;2023-02-28T10:06:46;6.40;89.30
23411;DHT22;11878;51.774;7.220;2023-02-28T10:09:53;6.00;87.30
23411;DHT22;11878;51.774;7.220;2023-02-28T10:12:58;6.70;84.80
23411;DHT22;11878;51.774;7.220;2023-02-28T10:16:11;6.70;77.70
23411;DHT22;11878;51.774;7.220;2023-02-28T10:19:20;7.00;78.90
23411;DHT22;11878;51.774;7.220;2023-02-28T10:23:13;6.40;76.10
23411;DHT22;11878;51.774;7.220;2023-02-28T10:26:00;6.20;79.80
23411;DHT22;11878;51.774;7.220;2023-02-28T10:29:03;6.60;81.70
23411;DHT22;11878;51.774;7.220;2023-02-28T10:32:04;7.40;78.20
23411;DHT22;11878;51.774;7.220;2023-02-28T10:35:15;7.00;76.60
23411;DHT22;11878;51.774;7.220;2023-02-28T10:38:44;7.50;76.40
23411;DHT22;11878;51.774;7.220;2023-02-28T10:41:46;7.10;72.30
23411;DHT22;11878;51.774;7.220;2023-02-28T10:44:48;6.60;73.80
23411;DHT22;11878;51.774;7.220;2023-02-28T10:48:02;6.40;72.20
23411;DHT22;11878;51.774;7.220;2023-02-28T10:51:11;5.70;69.50
23411;DHT22;11878;51.774;7.220;2023-02-28T10:54:32;5.10;77.50
23411;DHT22;11878;51.774;7.220;2023-02-28T10:57:36;5.70;74.60
23411;DHT22;11878;51.774;7.220;2023-02-28T11:00:38;6.10;77.30
23411;DHT22;11878;51.774;7.220;2023-02-28T11:03:40;5.40;79.50
23411;DHT22;11878;51.774;7.220;2023-02-28T11:06:42;5.10;77.60
23411;DHT22;11878;51.774;7.220;2023-02-28T11:09:52;5.10;79.90
23411;DHT22;11878;51.774;7.220;2023-02-28T11:12:56;5.90;78.20
23411;DHT22;11878;51.774;7.220;2023-02-28T11:16:04;6.50;74.70
23411;DHT22;11878;51.774;7.220;2023-02-28T11:19:17;6.90;74.80
23411;DHT22;11878;51.774;7.220;2023-02-28T11:22:28;6.90;74.30
23411;DHT22;11878;51.774;7.220;2023-02-28T11:25:33;6.50;71.90
23411;DHT22;11878;51.774;7.220;2023-02-28T11:28:39;6.30;73.00
23411;DHT22;11878;51.774;7.220;2023-02-28T11:31:41;6.60;71.10
23411;DHT22;11878;51.774;7.220;2023-02-28T11:34:44;6.60;73.40
23411;DHT22;11878;51.774;7.220;2023-02-28T11:37:46;6.40;73.50
23411;DHT22;11878;51.774;7.220;2023-02-28T11:50:42;6.00;76.10
23411;DHT22;11878;51.774;7.220;2023-02-28T12:08:06;6.70;71.80
23411;DHT22;11878;51.774;7.220;2023-02-28T12:17:55;7.20;68.50
23411;DHT22;11878;51.774;7.220;2023-02-28T12:28:14;7.80;70.10
23411;DHT22;11878;51.774;7.220;2023-02-28T12:31:33;7.60;69.10
23411;DHT22;11878;51.774;7.220;2023-02-28T12:34:45;7.50;71.20
23411;DHT22;11878;51.774;7.220;2023-02-28T12:38:14;7.50;68.70
23411;DHT22;11878;51.774;7.220;2023-02-28T12:41:29;7.60;66.80
23411;DHT22;11878;51.774;7.220;2023-02-28T12:44:37;7.40;67.30
23411;DHT22;11878;51.774;7.220;2023-02-28T12:47:44;7.40;67.50
23411;DHT22;11878;51.774;7.220;2023-02-28T12:50:48;8.20;66.60
23411;DHT22;11878;51.774;7.220;2023-02-28T12:57:58;8.30;63.50
23411;DHT22;11878;51.774;7.220;2023-02-28T13:01:34;7.90;65.60
23411;DHT22;11878;51.774;7.220;2023-02-28T13:11:25;7.10;68.90
23411;DHT22;11878;51.774;7.220;2023-02-28T13:17:34;8.50;66.40
23411;DHT22;11878;51.774;7.220;2023-02-28T13:20:37;8.40;67.60
23411;DHT22;11878;51.774;7.220;2023-02-28T13:24:00;8.10;66.80
23411;DHT22;11878;51.774;7.220;2023-02-28T13:40:33;9.40;60.30
23411;DHT22;11878;51.774;7.220;2023-02-28T13:44:07;8.90;63.40
23411;DHT22;11878;51.774;7.220;2023-02-28T14:01:00;10.10;60.10
23411;DHT22;11878;51.774;7.220;2023-02-28T14:07:21;13.20;54.30
23411;DHT22;11878;51.774;7.220;2023-02-28T14:16:47;14.70;51.20
23411;DHT22;11878;51.774;7.220;2023-02-28T14:19:51;15.40;47.40
23411;DHT22;11878;51.774;7.220;2023-02-28T14:23:15;15.60;43.40
23411;DHT22;11878;51.774;7.220;2023-02-28T14:39:22;16.30;41.80
23411;DHT22;11878;51.774;7.220;2023-02-28T14:42:34;16.90;38.90
23411;DHT22;11878;51.774;7.220;2023-02-28T14:45:36;16.10;39.50
23411;DHT22;11878;51.774;7.220;2023-02-28T14:48:39;15.30;39.00
23411;DHT22;11878;51.774;7.220;2023-02-28T14:51:40;16.60;40.40
23411;DHT22;11878;51.774;7.220;2023-02-28T14:54:44;15.70;38.80
23411;DHT22;11878;51.774;7.220;2023-02-28T14:57:57;13.30;38.90
23411;DHT22;11878;51.774;7.220;2023-02-28T15:01:02;11.10;49.90
23411;DHT22;11878;51.774;7.220;2023-02-28T15:04:05;10.70;49.90
23411;DHT22;11878;51.774;7.220;2023-02-28T15:07:09;10.60;53.30
23411;DHT22;11878;51.774;7.220;2023-02-28T15:10:21;10.40;54.20
23411;DHT22;11878;51.774;7.220;2023-02-28T15:13:34;11.20;53.40
23411;DHT22;11878;51.774;7.220;2023-02-28T15:16:40;13.60;45.00
23411;DHT22;11878;51.774;7.220;2023-02-28T15:19:45;14.20;43.70
23411;DHT22;11878;51.774;7.220;2023-02-28T15:22:51;16.00;40.90
23411;DHT22;11878;51.774;7.220;2023-02-28T15:25:54;15.90;39.00
23411;DHT22;11878;51.774;7.220;2023-02-28T15:29:02;16.00;39.40
23411;DHT22;11878;51.774;7.220;2023-02-28T15:32:07;16.20;39.90
23411;DHT22;11878;51.774;7.220;2023-02-28T15:38:27;15.10;39.40
23411;DHT22;11878;51.774;7.220;2023-02-28T15:41:34;13.10;40.10
23411;DHT22;11878;51.774;7.220;2023-02-28T16:34:17;7.60;61.70
23411;DHT22;11878;51.774;7.220;2023-02-28T16:37:19;7.30;63.50
23411;DHT22;11878;51.774;7.220;2023-02-28T16:40:23;7.20;66.70
23411;DHT22;11878;51.774;7.220;2023-02-28T16:43:27;6.70;69.50
23411;DHT22;11878;51.774;7.220;2023-02-28T16:46:34;6.50;72.20
23411;DHT22;11878;51.774;7.220;2023-02-28T16:49:36;6.60;71.50
23411;DHT22;11878;51.774;7.220;2023-02-28T16:52:38;6.40;72.00
23411;DHT22;11878;51.774;7.220;2023-02-28T16:55:40;6.50;73.00
23411;DHT22;11878;51.774;7.220;2023-02-28T16:58:42;6.50;74.20
23411;DHT22;11878;51.774;7.220;2023-02-28T17:01:43;6.20;74.00
23411;DHT22;11878;51.774;7.220;2023-02-28T17:04:46;6.20;76.00
23411;DHT22;11878;51.774;7.220;2023-02-28T17:07:48;6.20;74.00
23411;DHT22;11878;51.774;7.220;2023-02-28T17:10:50;6.20;74.90
23411;DHT22;11878;51.774;7.220;2023-02-28T17:13:52;5.80;78.40
23411;DHT22;11878;51.774;7.220;2023-02-28T17:16:55;5.90;78.10
23411;DHT22;11878;51.774;7.220;2023-02-28T17:19:57;5.80;79.00
23411;DHT22;11878;51.774;7.220;2023-02-28T17:22:59;5.60;81.50
23411;DHT22;11878;51.774;7.220;2023-02-28T17:26:02;5.60;83.80
23411;DHT22;11878;51.774;7.220;2023-02-28T17:29:21;5.60;84.30
23411;DHT22;11878;51.774;7.220;2023-02-28T17:32:22;5.50;82.40
23411;DHT22;11878;51.774;7.220;2023-02-28T17:35:25;5.30;86.90
23411;DHT22;11878;51.774;7.220;2023-02-28T17:38:28;5.30;83.20
23411;DHT22;11878;51.774;7.220;2023-02-28T17:41:30;5.30;88.40
23411;DHT22;11878;51.774;7.220;2023-02-28T17:44:32;5.20;83.80
23411;DHT22;11878;51.774;7.220;2023-02-28T17:47:33;5.00;89.70
23411;DHT22;11878;51.774;7.220;2023-02-28T17:50:35;5.00;88.70
23411;DHT22;11878;51.774;7.220;2023-02-28T17:53:37;4.90;91.40
23411;DHT22;11878;51.774;7.220;2023-02-28T17:56:39;4.90;92.70
23411;DHT22;11878;51.774;7.220;2023-02-28T17:59:41;4.60;92.80
23411;DHT22;11878;51.774;7.220;2023-02-28T18:02:44;4.50;95.70
23411;DHT22;11878;51.774;7.220;2023-02-28T18:05:46;4.40;95.70
23411;DHT22;11878;51.774;7.220;2023-02-28T18:08:48;4.30;96.40
23411;DHT22;11878;51.774;7.220;2023-02-28T18:11:51;4.20;95.30
23411;DHT22;11878;51.774;7.220;2023-02-28T18:14:53;4.20;99.20
23411;DHT22;11878;51.774;7.220;2023-02-28T18:17:55;4.00;97.00
23411;DHT22;11878;51.774;7.220;2023-02-28T18:20:57;3.90;98.60
23411;DHT22;11878;51.774;7.220;2023-02-28T18:23:58;3.70;98.40
23411;DHT22;11878;51.774;7.220;2023-02-28T18:27:00;3.80;99.90
23411;DHT22;11878;51.774;7.220;2023-02-28T18:30:03;3.70;97.40
23411;DHT22;11878;51.774;7.220;2023-02-28T18:33:05;3.60;98.30
23411;DHT22;11878;51.774;7.220;2023-02-28T18:36:07;3.50;99.70
23411;DHT22;11878;51.774;7.220;2023-02-28T18:39:09;3.50;98.20
23411;DHT22;11878;51.774;7.220;2023-02-28T18:42:12;3.40;99.90
23411;DHT22;11878;51.774;7.220;2023-02-28T18:45:14;3.30;99.90
23411;DHT22;11878;51.774;7.220;2023-02-28T18:48:16;3.20;99.90
23411;DHT22;11878;51.774;7.220;2023-02-28T18:51:23;3.10;99.90
23411;DHT22;11878;51.774;7.220;2023-02-28T18:54:25;3.00;99.90
23411;DHT22;11878;51.774;7.220;2023-02-28T18:57:27;2.90;99.90
23411;DHT22;11878;51.774;7.220;2023-02-28T19:00:30;2.90;99.90
23411;DHT22;11878;51.774;7.220;2023-02-28T19:03:32;2.90;99.90
23411;DHT22;11878;51.774;7.220;2023-02-28T19:06:34;2.80;99.90
23411;DHT22;11878;51.774;7.220;2023-02-28T19:09:37;2.60;99.90
23411;DHT22;11878;51.774;7.220;2023-02-28T19:12:39;2.50;99.90
23411;DHT22;11878;51.774;7.220;2023-02-28T19:15:42;2.50;99.90
23411;DHT22;11878;51.774;7.220;2023-02-28T19:18:44;2.40;99.90
23411;DHT22;11878;51.774;7.220;2023-02-28T19:21:46;2.40;99.90
23411;DHT22;11878;51.774;7.220;2023-02-28T19:24:49;2.40;99.90
23411;DHT22;11878;51.774;7.220;2023-02-28T19:27:52;2.30;99.90
23411;DHT22;11878;51.774;7.220;2023-02-28T19:30:54;2.20;99.90
23411;DHT22;11878;51.774;7.220;2023-02-28T19:33:56;2.10;99.90
23411;DHT22;11878;51.774;7.220;2023-02-28T19:36:59;2.10;99.90
23411;DHT22;11878;51.774;7.220;2023-02-28T19:40:01;2.10;99.90
23411;DHT22;11878;51.774;7.220;2023-02-28T19:43:03;2.10;99.90
23411;DHT22;11878;51.774;7.220;2023-02-28T19:46:07;2.00;99.90
23411;DHT22;11878;51.774;7.220;2023-02-28T19:49:10;1.80;99.90
23411;DHT22;11878;51.774;7.220;2023-02-28T19:52:13;1.70;99.90
23411;DHT22;11878;51.774;7.220;2023-02-28T19:55:16;1.60;99.90
23411;DHT22;11878;51.774;7.220;2023-02-28T19:58:19;1.70;99.90
23411;DHT22;11878;51.774;7.220;2023-02-28T20:01:21;1.70;99.90
23411;DHT22;11878;51.774;7.220;2023-02-28T20:04:25;1.60;99.90
23411;DHT22;11878;51.774;7.220;2023-02-28T20:07:27;1.50;99.90
23411;DHT22;11878;51.774;7.220;2023-02-28T20:10:29;1.40;99.90
23411;DHT22;11878;51.774;7.220;2023-02-28T20:13:31;1.80;99.90
23411;DHT22;11878;51.774;7.220;2023-02-28T20:16:33;1.50;99.90
23411;DHT22;11878;51.774;7.220;2023-02-28T20:19:35;1.50;99.90
23411;DHT22;11878;51.774;7.220;2023-02-28T20:22:37;1.50;99.90
23411;DHT22;11878;51.774;7.220;2023-02-28T20:25:39;1.60;99.90
23411;DHT22;11878;51.774;7.220;2023-02-28T20:28:42;1.70;99.90
23411;DHT22;11878;51.774;7.220;2023-02-28T20:31:44;1.50;99.90
23411;DHT22;11878;51.774;7.220;2023-02-28T20:34:46;1.50;99.90
23411;DHT22;11878;51.774;7.220;2023-02-28T20:37:48;1.50;99.90
23411;DHT22;11878;51.774;7.220;2023-02-28T20:40:53;1.50;99.90
23411;DHT22;11878;51.774;7.220;2023-02-28T20:43:58;1.40;99.90
23411;DHT22;11878;51.774;7.220;2023-02-28T20:47:02;2.10;99.90
23411;DHT22;11878;51.774;7.220;2023-02-28T20:50:05;1.00;99.90
23411;DHT22;11878;51.774;7.220;2023-02-28T20:53:07;0.90;99.90
23411;DHT22;11878;51.774;7.220;2023-02-28T20:56:11;1.10;99.90
23411;DHT22;11878;51.774;7.220;2023-02-28T20:59:14;0.90;99.90
23411;DHT22;11878;51.774;7.220;2023-02-28T21:02:18;0.90;99.90
23411;DHT22;11878;51.774;7.220;2023-02-28T21:05:20;0.90;99.90
23411;DHT22;11878;51.774;7.220;2023-02-28T21:08:21;0.90;99.90
23411;DHT22;11878;51.774;7.220;2023-02-28T21:11:31;0.80;99.90
23411;DHT22;11878;51.774;7.220;2023-02-28T21:14:33;1.00;99.90
23411;DHT22;11878;51.774;7.220;2023-02-28T21:17:35;0.80;99.90
23411;DHT22;11878;51.774;7.220;2023-02-28T21:20:37;0.80;99.90
23411;DHT22;11878;51.774;7.220;2023-02-28T21:23:40;0.70;99.90
23411;DHT22;11878;51.774;7.220;2023-02-28T21:26:43;0.70;99.90
23411;DHT22;11878;51.774;7.220;2023-02-28T21:29:47;1.50;99.90
23411;DHT22;11878;51.774;7.220;2023-02-28T21:32:49;0.50;99.90
23411;DHT22;11878;51.774;7.220;2023-02-28T21:35:51;0.60;99.90
23411;DHT22;11878;51.774;7.220;2023-02-28T21:38:55;0.70;99.90
23411;DHT22;11878;51.774;7.220;2023-02-28T21:41:58;0.60;99.90
23411;DHT22;11878;51.774;7.220;2023-02-28T21:45:05;0.50;99.90
23411;DHT22;11878;51.774;7.220;2023-02-28T21:48:07;0.40;99.90
23411;DHT22;11878;51.774;7.220;2023-02-28T21:51:13;0.30;99.90
23411;DHT22;11878;51.774;7.220;2023-02-28T21:54:15;0.30;99.90
23411;DHT22;11878;51.774;7.220;2023-02-28T21:57:16;-0.60;99.90
23411;DHT22;11878;51.774;7.220;2023-02-28T22:00:19;0.40;99.90
23411;DHT22;11878;51.774;7.220;2023-02-28T22:03:21;0.30;99.90
23411;DHT22;11878;51.774;7.220;2023-02-28T22:06:25;0.20;99.90
23411;DHT22;11878;51.774;7.220;2023-02-28T22:09:27;0.20;99.90
23411;DHT22;11878;51.774;7.220;2023-02-28T22:12:29;0.20;99.90
23411;DHT22;11878;51.774;7.220;2023-02-28T22:15:36;0.10;99.90
23411;DHT22;11878;51.774;7.220;2023-02-28T22:18:38;0.00;99.90
23411;DHT22;11878;51.774;7.220;2023-02-28T22:21:41;0.10;99.90
23411;DHT22;11878;51.774;7.220;2023-02-28T22:24:43;0.10;99.90
23411;DHT22;11878;51.774;7.220;2023-02-28T22:27:45;0.00;99.90
23411;DHT22;11878;51.774;7.220;2023-02-28T22:30:48;0.00;99.90
23411;DHT22;11878;51.774;7.220;2023-02-28T22:33:52;0.00;99.90
23411;DHT22;11878;51.774;7.220;2023-02-28T22:36:54;0.00;99.90
23411;DHT22;11878;51.774;7.220;2023-02-28T22:39:56;0.00;99.90
23411;DHT22;11878;51.774;7.220;2023-02-28T22:42:57;0.00;99.90
23411;DHT22;11878;51.774;7.220;2023-02-28T22:46:04;-0.10;99.90
23411;DHT22;11878;51.774;7.220;2023-02-28T22:49:07;0.00;99.90
23411;DHT22;11878;51.774;7.220;2023-02-28T22:52:09;-0.10;99.90